createdAt,value
2023-09-08T00:00:27.991Z,16.66
2023-09-08T00:03:15.508Z,16.61
2023-09-08T00:05:43.364Z,16.58
2023-09-08T00:08:10.356Z,16.55
2023-09-08T00:10:37.819Z,16.52
2023-09-08T00:13:04.951Z,16.47
2023-09-08T00:15:36.070Z,16.44
2023-09-08T00:18:03.407Z,16.40
2023-09-08T00:20:30.796Z,16.37
2023-09-08T00:22:57.892Z,16.32
2023-09-08T00:25:25.195Z,16.29
2023-09-08T00:27:52.243Z,16.27
2023-09-08T00:30:19.671Z,16.25
2023-09-08T00:32:46.954Z,16.21
2023-09-08T00:35:14.816Z,16.15
2023-09-08T00:37:42.158Z,16.13
2023-09-08T00:40:10.899Z,16.11
2023-09-08T00:42:38.207Z,16.06
2023-09-08T00:45:06.314Z,16.04
2023-09-08T00:47:35.614Z,16.01
2023-09-08T00:50:07.387Z,15.96
2023-09-08T00:52:35.013Z,15.92
2023-09-08T00:55:03.576Z,15.92
2023-09-08T00:57:31.711Z,15.88
2023-09-08T00:59:59.807Z,15.84
2023-09-08T01:02:27.172Z,15.81
2023-09-08T01:04:54.749Z,15.78
2023-09-08T01:07:22.419Z,15.75
2023-09-08T01:09:51.581Z,15.71
2023-09-08T01:12:20.239Z,15.69
2023-09-08T01:14:47.612Z,15.67
2023-09-08T01:17:14.866Z,15.63
2023-09-08T01:19:46.039Z,15.59
2023-09-08T01:22:50.583Z,15.57
2023-09-08T01:25:24.760Z,15.54
2023-09-08T01:27:55.812Z,15.51
2023-09-08T01:30:27.734Z,15.47
2023-09-08T01:32:56.523Z,15.44
2023-09-08T01:35:25.164Z,15.42
2023-09-08T01:37:52.522Z,15.39
2023-09-08T01:40:20.038Z,15.35
2023-09-08T01:42:47.152Z,15.34
2023-09-08T01:45:14.933Z,15.31
2023-09-08T01:47:42.829Z,15.27
2023-09-08T01:50:10.658Z,15.25
2023-09-08T01:52:38.070Z,15.20
2023-09-08T01:55:06.444Z,15.18
2023-09-08T01:57:33.576Z,15.16
2023-09-08T02:00:01.366Z,15.12
2023-09-08T02:02:28.515Z,15.10
2023-09-08T02:04:55.800Z,15.06
2023-09-08T02:07:23.032Z,15.05
2023-09-08T02:09:52.830Z,15.03
2023-09-08T02:12:20.593Z,14.99
2023-09-08T02:14:48.178Z,14.95
2023-09-08T02:17:15.555Z,14.94
2023-09-08T02:19:42.831Z,14.91
2023-09-08T02:22:10.586Z,14.87
2023-09-08T02:24:37.923Z,14.83
2023-09-08T02:27:05.641Z,14.80
2023-09-08T02:29:33.026Z,14.77
2023-09-08T02:32:00.069Z,14.73
2023-09-08T02:34:27.474Z,14.72
2023-09-08T02:36:54.496Z,14.70
2023-09-08T02:39:27.854Z,14.64
2023-09-08T02:41:55.949Z,14.65
2023-09-08T02:44:23.546Z,14.61
2023-09-08T02:46:50.975Z,14.58
2023-09-08T02:49:18.450Z,14.56
2023-09-08T02:51:45.615Z,14.55
2023-09-08T02:54:13.474Z,14.54
2023-09-08T02:56:40.526Z,14.51
2023-09-08T02:59:08.271Z,14.47
2023-09-08T03:01:36.113Z,14.45
2023-09-08T03:04:04.833Z,14.40
2023-09-08T03:06:33.316Z,14.38
2023-09-08T03:09:01.060Z,14.35
2023-09-08T03:11:28.364Z,14.34
2023-09-08T03:13:55.662Z,14.29
2023-09-08T03:16:22.957Z,14.27
2023-09-08T03:18:50.240Z,14.22
2023-09-08T03:21:17.387Z,14.18
2023-09-08T03:23:46.661Z,14.15
2023-09-08T03:26:15.389Z,14.15
2023-09-08T03:28:43.945Z,14.12
2023-09-08T03:31:11.705Z,14.08
2023-09-08T03:33:40.041Z,14.08
2023-09-08T03:36:09.101Z,14.07
2023-09-08T03:38:38.603Z,14.05
2023-09-08T03:41:07.191Z,14.00
2023-09-08T03:43:34.926Z,13.95
2023-09-08T03:46:03.014Z,13.94
2023-09-08T03:48:30.403Z,13.94
2023-09-08T03:50:57.706Z,13.90
2023-09-08T03:53:25.405Z,13.86
2023-09-08T03:55:52.728Z,13.81
2023-09-08T03:58:21.023Z,13.80
2023-09-08T04:00:49.003Z,13.80
2023-09-08T04:03:16.498Z,13.78
2023-09-08T04:05:43.643Z,13.76
2023-09-08T04:08:11.604Z,13.74
2023-09-08T04:10:38.753Z,13.72
2023-09-08T04:13:06.057Z,13.72
2023-09-08T04:15:33.900Z,13.70
2023-09-08T04:18:04.507Z,13.67
2023-09-08T04:20:31.764Z,13.69
2023-09-08T04:22:59.316Z,13.67
2023-09-08T04:25:26.740Z,13.63
2023-09-08T04:27:54.212Z,13.63
2023-09-08T04:30:22.525Z,13.63
2023-09-08T04:32:49.939Z,13.59
2023-09-08T04:35:17.092Z,13.58
2023-09-08T04:37:44.987Z,13.58
2023-09-08T04:40:12.253Z,13.61
2023-09-08T04:42:39.795Z,13.62
2023-09-08T04:45:08.776Z,13.64
2023-09-08T04:47:37.369Z,13.65
2023-09-08T04:50:07.730Z,13.66
2023-09-08T04:52:35.240Z,13.71
2023-09-08T04:55:05.779Z,13.75
2023-09-08T04:57:33.165Z,13.79
2023-09-08T05:00:00.377Z,13.85
2023-09-08T05:02:29.741Z,13.91
2023-09-08T05:04:57.016Z,13.99
2023-09-08T05:07:25.018Z,14.07
2023-09-08T05:09:53.102Z,14.13
2023-09-08T05:12:21.317Z,14.24
2023-09-08T05:14:48.443Z,14.30
2023-09-08T05:17:16.026Z,14.37
2023-09-08T05:19:42.999Z,14.45
2023-09-08T05:22:10.438Z,14.54
2023-09-08T05:24:37.460Z,14.62
2023-09-08T05:27:05.522Z,14.78
2023-09-08T05:29:33.182Z,14.92
2023-09-08T05:32:01.092Z,15.06
2023-09-08T05:34:31.685Z,15.19
2023-09-08T05:36:59.067Z,15.35
2023-09-08T05:39:26.390Z,15.50
2023-09-08T05:41:54.022Z,15.67
2023-09-08T05:44:21.712Z,15.84
2023-09-08T05:46:50.474Z,16.01
2023-09-08T05:49:19.073Z,16.15
2023-09-08T05:51:46.914Z,16.30
2023-09-08T05:54:14.306Z,16.46
2023-09-08T05:56:41.761Z,16.63
2023-09-08T05:59:08.922Z,16.81
2023-09-08T06:01:37.983Z,17.09
2023-09-08T06:04:07.924Z,17.29
2023-09-08T06:06:35.679Z,17.54
2023-09-08T06:09:03.931Z,17.88
2023-09-08T06:11:31.218Z,18.16
2023-09-08T06:14:00.468Z,18.23
2023-09-08T06:16:36.718Z,18.43
2023-09-08T06:19:04.530Z,18.57
2023-09-08T06:21:32.209Z,18.71
2023-09-08T06:23:59.885Z,19.02
2023-09-08T06:26:29.434Z,19.40
2023-09-08T06:28:57.402Z,19.73
2023-09-08T06:31:25.128Z,19.90
2023-09-08T06:33:53.653Z,19.85
2023-09-08T06:36:21.981Z,19.81
2023-09-08T06:38:49.159Z,20.03
2023-09-08T06:41:16.622Z,19.95
2023-09-08T06:43:45.108Z,20.03
2023-09-08T06:46:18.204Z,20.33
2023-09-08T06:48:45.799Z,20.58
2023-09-08T06:51:13.685Z,20.81
2023-09-08T06:53:41.359Z,21.19
2023-09-08T06:56:08.724Z,21.39
2023-09-08T06:58:36.023Z,21.54
2023-09-08T07:01:05.220Z,21.89
2023-09-08T07:03:38.213Z,22.12
2023-09-08T07:06:07.910Z,22.33
2023-09-08T07:08:35.628Z,22.55
2023-09-08T07:11:04.037Z,22.63
2023-09-08T07:13:31.444Z,22.79
2023-09-08T07:15:59.573Z,22.91
2023-09-08T07:18:29.594Z,22.87
2023-09-08T07:20:57.246Z,23.07
2023-09-08T07:23:24.380Z,23.15
2023-09-08T07:25:52.673Z,23.33
2023-09-08T07:28:24.248Z,23.62
2023-09-08T07:30:53.330Z,23.88
2023-09-08T07:33:23.657Z,24.20
2023-09-08T07:35:51.504Z,24.30
2023-09-08T07:38:18.648Z,24.39
2023-09-08T07:40:46.297Z,24.63
2023-09-08T07:43:13.598Z,24.88
2023-09-08T07:45:42.011Z,24.98
2023-09-08T07:48:09.222Z,25.17
2023-09-08T07:50:37.075Z,25.34
2023-09-08T07:53:04.183Z,25.58
2023-09-08T07:55:31.708Z,25.77
2023-09-08T07:57:59.800Z,26.06
2023-09-08T08:00:28.285Z,26.15
2023-09-08T08:02:57.956Z,26.33
2023-09-08T08:05:27.048Z,26.46
2023-09-08T08:07:54.210Z,26.79
2023-09-08T08:10:21.621Z,27.08
2023-09-08T08:12:48.866Z,27.19
2023-09-08T08:15:16.425Z,27.19
2023-09-08T08:17:43.664Z,27.19
2023-09-08T08:20:18.432Z,27.45
2023-09-08T08:22:47.180Z,27.54
2023-09-08T08:25:14.947Z,27.59
2023-09-08T08:27:42.871Z,27.75
2023-09-08T08:30:12.471Z,27.59
2023-09-08T08:32:40.085Z,27.71
2023-09-08T08:35:08.258Z,28.04
2023-09-08T08:37:35.897Z,28.36
2023-09-08T08:40:06.323Z,28.57
2023-09-08T08:42:34.554Z,28.71
2023-09-08T08:45:04.281Z,29.03
2023-09-08T08:47:32.157Z,28.99
2023-09-08T08:50:04.215Z,29.21
2023-09-08T08:52:32.542Z,29.33
2023-09-08T08:55:06.544Z,29.44
2023-09-08T08:57:34.082Z,29.43
2023-09-08T09:00:05.764Z,29.71
2023-09-08T09:02:34.710Z,30.01
2023-09-08T09:05:05.703Z,30.08
2023-09-08T09:07:33.970Z,30.44
2023-09-08T09:10:03.419Z,30.63
2023-09-08T09:12:31.418Z,30.80
2023-09-08T09:15:00.980Z,30.95
2023-09-08T09:17:28.212Z,31.13
2023-09-08T09:20:21.191Z,31.19
2023-09-08T09:22:50.225Z,30.70
2023-09-08T09:25:29.573Z,30.85
2023-09-08T09:28:03.329Z,31.10
2023-09-08T09:30:53.131Z,31.20
2023-09-08T09:33:20.611Z,31.45
2023-09-08T09:35:52.677Z,31.89
2023-09-08T09:38:21.953Z,32.27
2023-09-08T09:40:50.291Z,32.40
2023-09-08T09:43:21.533Z,32.12
2023-09-08T09:45:49.476Z,31.88
2023-09-08T09:48:20.314Z,32.00
2023-09-08T09:50:47.832Z,32.15
2023-09-08T09:53:17.561Z,32.17
2023-09-08T09:55:46.702Z,31.99
2023-09-08T09:58:15.656Z,31.87
2023-09-08T10:00:48.523Z,32.02
2023-09-08T10:03:16.678Z,31.94
2023-09-08T10:05:44.646Z,31.86
2023-09-08T10:08:11.839Z,31.86
2023-09-08T10:10:42.642Z,31.97
2023-09-08T10:13:12.736Z,31.69
2023-09-08T10:15:43.324Z,31.78
2023-09-08T10:18:16.528Z,31.65
2023-09-08T10:20:45.886Z,31.77
2023-09-08T10:23:41.687Z,31.77
2023-09-08T10:26:12.765Z,31.98
2023-09-08T10:28:40.267Z,32.40
2023-09-08T10:31:10.443Z,32.33
2023-09-08T10:33:39.842Z,32.57
2023-09-08T10:36:09.503Z,32.62
2023-09-08T10:38:36.843Z,32.57
2023-09-08T10:41:20.540Z,32.79
2023-09-08T10:44:08.828Z,32.96
2023-09-08T10:46:38.605Z,33.03
2023-09-08T10:49:08.592Z,33.27
2023-09-08T10:51:37.008Z,33.36
2023-09-08T10:54:06.941Z,33.24
2023-09-08T10:56:57.165Z,32.95
2023-09-08T10:59:36.625Z,33.01
2023-09-08T11:02:05.623Z,32.94
2023-09-08T11:04:36.808Z,33.27
2023-09-08T11:07:04.768Z,33.44
2023-09-08T11:09:37.762Z,33.64
2023-09-08T11:12:09.250Z,33.46
2023-09-08T11:14:36.713Z,33.54
2023-09-08T11:17:04.767Z,33.50
2023-09-08T11:19:49.920Z,33.52
2023-09-08T11:22:18.525Z,33.31
2023-09-08T11:24:46.444Z,33.29
2023-09-08T11:27:22.399Z,33.53
2023-09-08T11:30:15.253Z,33.82
2023-09-08T11:32:43.413Z,33.57
2023-09-08T11:35:12.498Z,33.77
2023-09-08T11:37:42.863Z,33.90
2023-09-08T11:40:13.437Z,33.90
2023-09-08T11:42:46.840Z,33.85
2023-09-08T11:45:18.924Z,33.88
2023-09-08T11:47:46.918Z,33.64
2023-09-08T11:50:21.338Z,33.50
2023-09-08T11:52:52.853Z,33.75
2023-09-08T11:55:23.299Z,34.01
2023-09-08T11:57:59.159Z,34.04
2023-09-08T12:00:28.141Z,33.95
2023-09-08T12:03:18.610Z,34.02
2023-09-08T12:05:54.510Z,34.05
2023-09-08T12:08:29.909Z,34.11
2023-09-08T12:11:18.568Z,34.09
2023-09-08T12:13:47.300Z,34.05
2023-09-08T12:16:26.228Z,34.01
2023-09-08T12:18:53.880Z,33.75
2023-09-08T12:24:15.029Z,34.20
2023-09-08T12:26:42.269Z,34.40
2023-09-08T12:29:15.085Z,34.45
2023-09-08T12:31:58.100Z,34.30
2023-09-08T12:34:32.438Z,34.19
2023-09-08T12:37:01.455Z,34.18
2023-09-08T12:39:30.880Z,34.08
2023-09-08T12:41:59.224Z,34.26
2023-09-08T12:44:31.360Z,34.38
2023-09-08T12:46:58.425Z,34.38
2023-09-08T12:49:26.080Z,34.28
2023-09-08T12:51:53.095Z,34.28
2023-09-08T12:54:20.664Z,34.33
2023-09-08T12:56:47.827Z,34.22
2023-09-08T12:59:15.204Z,34.11
2023-09-08T13:01:42.276Z,34.15
2023-09-08T13:04:10.082Z,34.33
2023-09-08T13:06:37.132Z,34.61
2023-09-08T13:09:05.642Z,34.61
2023-09-08T13:11:35.744Z,34.29
2023-09-08T13:14:05.070Z,34.45
2023-09-08T13:16:56.767Z,34.69
2023-09-08T13:19:24.161Z,35.07
2023-09-08T13:21:51.199Z,35.31
2023-09-08T13:24:22.048Z,35.51
2023-09-08T13:27:00.661Z,35.38
2023-09-08T13:29:35.609Z,35.03
2023-09-08T13:32:03.327Z,35.00
2023-09-08T13:34:30.871Z,34.92
2023-09-08T13:36:57.967Z,35.10
2023-09-08T13:39:25.252Z,35.23
2023-09-08T13:41:57.668Z,35.24
2023-09-08T13:44:44.693Z,35.21
2023-09-08T13:47:11.971Z,35.20
2023-09-08T13:49:41.159Z,35.24
2023-09-08T13:52:09.292Z,35.06
2023-09-08T13:54:39.987Z,34.77
2023-09-08T13:57:34.976Z,34.74
2023-09-08T14:00:05.169Z,34.74
2023-09-08T14:02:43.242Z,34.76
2023-09-08T14:05:15.225Z,34.78
2023-09-08T14:07:46.891Z,34.80
2023-09-08T14:11:05.610Z,34.57
2023-09-08T14:13:38.710Z,34.21
2023-09-08T14:16:06.635Z,34.00
2023-09-08T14:18:35.001Z,33.86
2023-09-08T14:21:03.674Z,33.79
2023-09-08T14:23:56.202Z,33.86
2023-09-08T14:26:23.899Z,33.95
2023-09-08T14:28:51.447Z,33.73
2023-09-08T14:31:19.212Z,33.56
2023-09-08T14:34:18.023Z,33.22
2023-09-08T14:36:45.752Z,32.92
2023-09-08T14:39:12.911Z,32.97
2023-09-08T14:41:40.364Z,32.95
2023-09-08T14:44:32.816Z,32.91
2023-09-08T14:47:01.085Z,32.78
2023-09-08T14:49:28.353Z,32.66
2023-09-08T14:51:56.026Z,32.53
2023-09-08T14:54:23.312Z,32.43
2023-09-08T14:56:51.397Z,32.39
2023-09-08T15:02:50.598Z,32.15
2023-09-08T15:05:18.514Z,31.99
2023-09-08T15:07:46.069Z,31.83
2023-09-08T15:10:18.035Z,31.76
2023-09-08T15:12:46.855Z,31.65
2023-09-08T15:15:14.418Z,31.60
2023-09-08T15:17:42.904Z,31.59
2023-09-08T15:20:11.299Z,31.51
2023-09-08T15:22:44.274Z,31.43
2023-09-08T15:25:14.183Z,31.32
2023-09-08T15:27:42.288Z,31.31
2023-09-08T15:30:11.489Z,31.27
2023-09-08T15:32:39.996Z,31.22
2023-09-08T15:35:08.812Z,31.16
2023-09-08T15:37:36.273Z,31.09
2023-09-08T15:40:05.067Z,30.99
2023-09-08T15:42:35.652Z,30.96
2023-09-08T15:45:04.460Z,31.01
2023-09-08T15:47:31.668Z,31.01
2023-09-08T15:49:59.196Z,30.98
2023-09-08T15:52:26.348Z,30.93
2023-09-08T15:54:53.906Z,30.87
2023-09-08T15:57:20.987Z,30.85
2023-09-08T15:59:48.686Z,30.87
2023-09-08T16:02:15.841Z,30.85
2023-09-08T16:04:43.436Z,30.79
2023-09-08T16:07:10.873Z,30.71
2023-09-08T16:09:39.496Z,30.65
2023-09-08T16:12:06.877Z,30.59
2023-09-08T16:14:34.430Z,30.49
2023-09-08T16:17:04.109Z,30.42
2023-09-08T16:19:31.535Z,30.35
2023-09-08T16:21:58.775Z,30.29
2023-09-08T16:24:27.359Z,30.22
2023-09-08T16:26:55.368Z,30.21
2023-09-08T16:29:22.750Z,30.19
2023-09-08T16:31:49.880Z,30.15
2023-09-08T16:34:17.284Z,30.10
2023-09-08T16:36:44.467Z,30.09
2023-09-08T16:39:12.474Z,30.07
2023-09-08T16:41:39.614Z,30.04
2023-09-08T16:44:07.311Z,30.02
2023-09-08T16:46:36.067Z,29.96
2023-09-08T16:49:05.735Z,29.88
2023-09-08T16:51:35.340Z,29.81
2023-09-08T16:54:03.891Z,29.72
2023-09-08T16:56:31.170Z,29.63
2023-09-08T16:59:02.156Z,29.52
2023-09-08T17:01:31.059Z,29.40
2023-09-08T17:03:58.776Z,29.31
2023-09-08T17:06:55.104Z,29.19
2023-09-08T17:09:23.936Z,29.09
2023-09-08T17:11:51.693Z,29.00
2023-09-08T17:14:19.326Z,28.89
2023-09-08T17:16:46.426Z,28.79
2023-09-08T17:19:14.011Z,28.68
2023-09-08T17:21:41.116Z,28.58
2023-09-08T17:24:09.022Z,28.47
2023-09-08T17:26:36.043Z,28.36
2023-09-08T17:29:03.632Z,28.26
2023-09-08T17:31:31.704Z,28.16
2023-09-08T17:33:59.192Z,28.06
2023-09-08T17:36:26.274Z,27.95
2023-09-08T17:38:53.742Z,27.85
2023-09-08T17:41:21.056Z,27.75
2023-09-08T17:43:48.406Z,27.64
2023-09-08T17:46:16.011Z,27.56
2023-09-08T17:48:43.563Z,27.45
2023-09-08T17:51:10.638Z,27.35
2023-09-08T17:53:38.563Z,27.25
2023-09-08T17:56:05.902Z,27.14
2023-09-08T17:58:33.311Z,27.05
2023-09-08T18:01:00.405Z,26.94
2023-09-08T18:03:29.713Z,26.83
2023-09-08T18:05:56.999Z,26.72
2023-09-08T18:08:24.689Z,26.63
2023-09-08T18:11:04.755Z,26.51
2023-09-08T18:13:32.564Z,26.41
2023-09-08T18:16:04.825Z,26.31
2023-09-08T18:18:41.481Z,26.21
2023-09-08T18:21:21.336Z,26.09
2023-09-08T18:23:49.123Z,25.98
2023-09-08T18:26:21.184Z,25.89
2023-09-08T18:28:52.818Z,25.78
2023-09-08T18:31:20.362Z,25.71
2023-09-08T18:33:47.786Z,25.61
2023-09-08T18:36:24.703Z,25.52
2023-09-08T18:38:52.153Z,25.46
2023-09-08T18:41:19.379Z,25.35
2023-09-08T18:43:46.765Z,25.27
2023-09-08T18:46:13.859Z,25.18
2023-09-08T18:48:41.440Z,25.09
2023-09-08T18:51:08.518Z,25.02
2023-09-08T18:53:36.381Z,24.95
2023-09-08T18:56:04.760Z,24.87
2023-09-08T18:58:34.421Z,24.79
2023-09-08T19:01:06.050Z,24.68
2023-09-08T19:03:34.304Z,24.64
2023-09-08T19:06:01.903Z,24.55
2023-09-08T19:08:31.589Z,24.48
2023-09-08T19:11:01.023Z,24.38
2023-09-08T19:13:28.603Z,24.32
2023-09-08T19:15:55.934Z,24.23
2023-09-08T19:18:23.359Z,24.15
2023-09-08T19:20:50.504Z,24.09
2023-09-08T19:23:18.043Z,24.03
2023-09-08T19:25:45.307Z,23.96
2023-09-08T19:28:12.991Z,23.87
2023-09-08T19:30:40.508Z,23.80
2023-09-08T19:33:07.879Z,23.74
2023-09-08T19:35:35.916Z,23.70
2023-09-08T19:38:03.582Z,23.60
2023-09-08T19:40:32.172Z,23.51
2023-09-08T19:43:18.537Z,23.45
2023-09-08T19:45:45.970Z,23.39
2023-09-08T19:48:13.943Z,23.30
2023-09-08T19:50:45.210Z,23.23
2023-09-08T19:53:12.315Z,23.12
2023-09-08T19:55:40.839Z,23.05
2023-09-08T19:58:08.019Z,23.01
2023-09-08T20:00:35.284Z,22.93
2023-09-08T20:03:02.876Z,22.91
2023-09-08T20:05:30.420Z,22.80
2023-09-08T20:07:57.505Z,22.74
2023-09-08T20:10:24.879Z,22.69
2023-09-08T20:12:53.110Z,22.62
2023-09-08T20:15:21.154Z,22.58
2023-09-08T20:18:18.786Z,22.49
2023-09-08T20:20:46.252Z,22.45
2023-09-08T20:23:14.614Z,22.36
2023-09-08T20:25:42.097Z,22.31
2023-09-08T20:28:09.129Z,22.24
2023-09-08T20:30:41.140Z,22.17
2023-09-08T20:33:08.355Z,22.12
2023-09-08T20:35:37.272Z,22.05
2023-09-08T20:38:05.916Z,22.00
2023-09-08T20:40:33.349Z,21.94
2023-09-08T20:43:00.432Z,21.88
2023-09-08T20:45:28.601Z,21.81
2023-09-08T20:47:55.736Z,21.78
2023-09-08T20:50:25.720Z,21.69
2023-09-08T20:52:52.900Z,21.67
2023-09-08T20:55:20.379Z,21.62
2023-09-08T20:57:47.487Z,21.55
2023-09-08T21:00:15.352Z,21.49
2023-09-08T21:02:42.749Z,21.44
2023-09-08T21:05:10.509Z,21.38
2023-09-08T21:07:37.782Z,21.32
2023-09-08T21:10:05.701Z,21.26
2023-09-08T21:12:32.849Z,21.20
2023-09-08T21:15:00.420Z,21.15
2023-09-08T21:17:27.674Z,21.08
2023-09-08T21:19:55.672Z,21.04
2023-09-08T21:22:22.790Z,20.98
2023-09-08T21:24:50.160Z,20.93
2023-09-08T21:27:17.256Z,20.85
2023-09-08T21:29:44.582Z,20.78
2023-09-08T21:32:11.776Z,20.72
2023-09-08T21:34:39.129Z,20.69
2023-09-08T21:37:06.254Z,20.63
2023-09-08T21:39:33.526Z,20.58
2023-09-08T21:42:02.286Z,20.53
2023-09-08T21:44:30.470Z,20.47
2023-09-08T21:46:57.613Z,20.43
2023-09-08T21:49:24.997Z,20.38
2023-09-08T21:51:52.722Z,20.34
2023-09-08T21:54:20.193Z,20.28
2023-09-08T21:56:47.305Z,20.23
2023-09-08T21:59:14.630Z,20.18
2023-09-08T22:01:41.969Z,20.12
2023-09-08T22:04:09.567Z,20.07
2023-09-08T22:06:36.892Z,20.04
2023-09-08T22:09:06.110Z,19.98
2023-09-08T22:11:33.306Z,19.93
2023-09-08T22:14:00.642Z,19.86
2023-09-08T22:16:29.939Z,19.81
2023-09-08T22:18:57.503Z,19.76
2023-09-08T22:21:24.568Z,19.72
2023-09-08T22:23:52.034Z,19.66
2023-09-08T22:26:19.932Z,19.63
2023-09-08T22:28:50.978Z,19.56
2023-09-08T22:31:18.393Z,19.52
2023-09-08T22:33:45.756Z,19.47
2023-09-08T22:36:12.947Z,19.41
2023-09-08T22:38:40.450Z,19.37
2023-09-08T22:41:07.656Z,19.34
2023-09-08T22:43:35.383Z,19.30
2023-09-08T22:46:03.465Z,19.26
2023-09-08T22:48:30.901Z,19.19
2023-09-08T22:50:57.942Z,19.15
2023-09-08T22:53:25.465Z,19.08
2023-09-08T22:55:52.698Z,19.05
2023-09-08T22:58:20.178Z,18.99
2023-09-08T23:00:47.415Z,18.94
2023-09-08T23:03:15.425Z,18.88
2023-09-08T23:05:43.491Z,18.84
2023-09-08T23:08:10.926Z,18.81
2023-09-08T23:10:38.054Z,18.74
2023-09-08T23:13:05.328Z,18.70
2023-09-08T23:15:34.162Z,18.68
2023-09-08T23:18:01.598Z,18.64
2023-09-08T23:20:28.895Z,18.59
2023-09-08T23:22:56.212Z,18.55
2023-09-08T23:25:23.393Z,18.51
2023-09-08T23:27:50.906Z,18.47
2023-09-08T23:30:18.241Z,18.43
2023-09-08T23:32:46.206Z,18.38
2023-09-08T23:35:13.819Z,18.35
2023-09-08T23:37:41.292Z,18.30
2023-09-08T23:40:10.954Z,18.24
2023-09-08T23:42:38.870Z,18.19
2023-09-08T23:45:07.199Z,18.14
2023-09-08T23:47:34.632Z,18.12
2023-09-08T23:50:01.837Z,18.06
2023-09-08T23:52:29.216Z,18.02
2023-09-08T23:54:56.542Z,17.95
2023-09-08T23:57:23.904Z,17.95
2023-09-08T23:59:51.235Z,17.90
